Time;durP1;ratioP1;P1;durP2;ratioP2;P2;SDS_P1;SDS_P2;PMS_P1;PMS_P2;Temp;Humidity;BMP_temperature;BMP_pressure;BME280_temperature;BME280_humidity;BME280_pressure;Samples;Min_cycle;Max_cycle;Signal;HPM_P1;HPM_P2
2023/07/25 00:02:12;;;;;;;4.28;1.90;;;;;;;;;;5032834;28;20462;-77
2023/07/25 00:04:37;;;;;;;4.32;1.88;;;;;;;;;;5033678;28;20022;-77
2023/07/25 00:07:03;;;;;;;4.07;1.90;;;;;;;;;;5033687;28;20036;-77
2023/07/25 00:09:28;;;;;;;4.47;2.28;;;;;;;;;;5033670;28;20040;-77
2023/07/25 00:11:53;;;;;;;3.83;2.20;;;;;;;;;;5033832;28;20237;-78
2023/07/25 00:14:19;;;;;;;5.72;1.92;;;;;;;;;;5033893;28;20026;-77
2023/07/25 00:16:44;;;;;;;5.00;2.00;;;;;;;;;;5033811;28;20035;-78
2023/07/25 00:19:10;;;;;;;3.58;2.33;;;;;;;;;;5034252;28;20025;-78
2023/07/25 00:21:35;;;;;;;3.13;2.13;;;;;;;;;;5031007;28;20021;-77
2023/07/25 00:24:00;;;;;;;2.80;1.90;;;;;;;;;;5034838;28;20040;-78
2023/07/25 00:26:26;;;;;;;4.22;2.25;;;;;;;;;;5033510;28;20108;-77
2023/07/25 00:28:51;;;;;;;5.07;2.38;;;;;;;;;;5034505;28;20116;-78
2023/07/25 00:31:17;;;;;;;3.65;2.20;;;;;;;;;;5033540;28;20032;-77
2023/07/25 00:33:43;;;;;;;3.70;2.38;;;;;;;;;;5034677;28;20492;-77
2023/07/25 00:36:08;;;;;;;4.18;2.45;;;;;;;;;;5015947;28;20153;-77
2023/07/25 00:38:34;;;;;;;3.38;2.08;;;;;;;;;;5034163;28;20489;-77
2023/07/25 00:40:59;;;;;;;4.90;2.25;;;;;;;;;;5034203;28;20556;-77
2023/07/25 00:43:25;;;;;;;3.85;2.10;;;;;;;;;;5033271;28;20500;-77
2023/07/25 00:45:51;;;;;;;4.63;2.53;;;;;;;;;;5034379;28;20060;-77
2023/07/25 00:48:16;;;;;;;3.30;1.90;;;;;;;;;;5034448;28;20017;-77
2023/07/25 00:50:41;;;;;;;3.25;2.10;;;;;;;;;;5034538;28;20021;-77
2023/07/25 00:53:09;;;;;;;3.97;2.03;;;;;;;;;;5032489;28;20026;-77
2023/07/25 00:55:35;;;;;;;2.90;2.20;;;;;;;;;;5033960;28;20029;-77
2023/07/25 00:58:00;;;;;;;4.93;2.28;;;;;;;;;;5032909;28;20032;-77
2023/07/25 01:00:26;;;;;;;5.03;2.28;;;;;;;;;;5034190;28;20025;-77
2023/07/25 01:02:52;;;;;;;3.92;2.22;;;;;;;;;;5032714;28;20025;-77
2023/07/25 01:05:17;;;;;;;4.53;2.20;;;;;;;;;;5032882;28;20076;-77
2023/07/25 01:07:43;;;;;;;6.35;2.40;;;;;;;;;;5033969;28;20033;-77
2023/07/25 01:10:08;;;;;;;4.63;2.47;;;;;;;;;;5031492;28;20024;-77
2023/07/25 01:12:34;;;;;;;4.45;2.38;;;;;;;;;;5040448;28;20057;-77
2023/07/25 01:14:59;;;;;;;3.90;2.40;;;;;;;;;;5016126;28;20382;-77
2023/07/25 01:17:25;;;;;;;5.00;2.47;;;;;;;;;;5032497;28;20029;-77
2023/07/25 01:19:52;;;;;;;4.00;2.47;;;;;;;;;;5064007;28;20075;-77
2023/07/25 01:22:19;;;;;;;5.60;2.40;;;;;;;;;;5032483;28;20390;-77
2023/07/25 01:24:46;;;;;;;6.35;2.60;;;;;;;;;;5032497;28;20037;-77
2023/07/25 01:27:13;;;;;;;6.75;2.67;;;;;;;;;;5032758;28;20058;-76
2023/07/25 01:29:39;;;;;;;5.20;2.75;;;;;;;;;;5030061;28;20037;-77
2023/07/25 01:32:05;;;;;;;6.13;2.70;;;;;;;;;;5033605;28;20071;-77
2023/07/25 01:34:30;;;;;;;3.80;2.70;;;;;;;;;;5032346;28;20496;-77
2023/07/25 01:36:56;;;;;;;5.15;2.75;;;;;;;;;;5032140;28;20026;-77
2023/07/25 01:39:21;;;;;;;4.68;2.90;;;;;;;;;;5033374;28;20484;-78
2023/07/25 01:41:46;;;;;;;6.78;3.00;;;;;;;;;;5032207;28;20064;-77
2023/07/25 01:44:12;;;;;;;4.80;2.70;;;;;;;;;;5030721;28;20048;-77
2023/07/25 01:46:41;;;;;;;4.95;3.03;;;;;;;;;;5027412;28;20021;-77
2023/07/25 01:49:09;;;;;;;8.45;3.05;;;;;;;;;;5033397;28;20014;-77
2023/07/25 01:51:34;;;;;;;5.00;3.03;;;;;;;;;;5033333;28;20531;-78
2023/07/25 01:54:00;;;;;;;4.80;2.83;;;;;;;;;;5033059;28;20033;-78
2023/07/25 01:56:25;;;;;;;5.03;2.95;;;;;;;;;;5033218;28;20386;-77
2023/07/25 01:58:51;;;;;;;4.78;3.20;;;;;;;;;;5031789;28;20029;-77
2023/07/25 02:01:16;;;;;;;6.18;3.47;;;;;;;;;;5032428;28;20553;-77
2023/07/25 02:03:41;;;;;;;6.05;2.90;;;;;;;;;;5032778;28;20531;-78
2023/07/25 02:06:07;;;;;;;5.10;3.50;;;;;;;;;;5032403;28;20542;-77
2023/07/25 02:08:32;;;;;;;5.40;3.17;;;;;;;;;;5032228;28;20037;-77
2023/07/25 02:10:58;;;;;;;5.07;3.55;;;;;;;;;;5032934;28;20017;-78
2023/07/25 02:13:23;;;;;;;5.10;3.33;;;;;;;;;;5031438;28;20083;-77
2023/07/25 02:15:48;;;;;;;6.40;3.40;;;;;;;;;;5032672;28;20091;-77
2023/07/25 02:18:14;;;;;;;5.82;3.40;;;;;;;;;;5032397;28;20021;-77
2023/07/25 02:20:39;;;;;;;6.32;3.17;;;;;;;;;;5032542;28;20488;-77
2023/07/25 02:23:04;;;;;;;5.95;3.50;;;;;;;;;;5032846;28;20028;-77
2023/07/25 02:25:30;;;;;;;5.38;2.75;;;;;;;;;;5032689;28;20029;-78
2023/07/25 02:27:55;;;;;;;6.60;3.28;;;;;;;;;;5032555;28;20741;-77
2023/07/25 02:30:21;;;;;;;5.85;2.97;;;;;;;;;;5032655;28;20116;-78
2023/07/25 02:32:47;;;;;;;4.63;3.10;;;;;;;;;;5031096;28;20032;-77
2023/07/25 02:35:14;;;;;;;7.35;3.00;;;;;;;;;;5031088;28;20033;-77
2023/07/25 02:37:40;;;;;;;4.65;3.20;;;;;;;;;;5031147;28;20029;-77
2023/07/25 02:40:07;;;;;;;4.78;3.08;;;;;;;;;;5031516;28;20109;-77
2023/07/25 02:42:32;;;;;;;6.65;3.08;;;;;;;;;;5031278;28;20128;-77
2023/07/25 02:44:57;;;;;;;5.10;2.80;;;;;;;;;;5032261;28;20049;-77
2023/07/25 02:47:23;;;;;;;4.65;3.08;;;;;;;;;;5014656;28;20401;-77
2023/07/25 02:49:48;;;;;;;3.97;2.88;;;;;;;;;;5031190;28;20118;-77
2023/07/25 02:52:14;;;;;;;6.22;3.15;;;;;;;;;;5030008;28;20390;-77
2023/07/25 02:54:39;;;;;;;5.78;2.90;;;;;;;;;;5031201;28;20083;-78
2023/07/25 02:57:05;;;;;;;4.60;3.15;;;;;;;;;;5028296;28;20025;-78
2023/07/25 02:59:31;;;;;;;4.57;2.80;;;;;;;;;;5032412;28;20389;-77
2023/07/25 03:01:56;;;;;;;7.97;2.83;;;;;;;;;;5030682;28;20010;-79
2023/07/25 03:04:21;;;;;;;6.25;3.05;;;;;;;;;;5032194;28;20025;-77
2023/07/25 03:06:47;;;;;;;3.35;2.50;;;;;;;;;;5031765;28;20052;-77
2023/07/25 03:09:12;;;;;;;5.25;3.10;;;;;;;;;;5030119;28;20044;-77
2023/07/25 03:11:37;;;;;;;5.80;2.80;;;;;;;;;;5029864;28;20056;-77
2023/07/25 03:14:03;;;;;;;6.63;2.88;;;;;;;;;;5032304;28;20022;-77
2023/07/25 03:16:29;;;;;;;5.80;3.13;;;;;;;;;;5030656;28;20041;-77
2023/07/25 03:18:54;;;;;;;5.15;3.00;;;;;;;;;;5032511;28;20029;-77
2023/07/25 03:21:19;;;;;;;6.07;2.85;;;;;;;;;;5035791;28;20036;-77
2023/07/25 03:23:45;;;;;;;6.65;3.17;;;;;;;;;;5034970;28;20029;-77
2023/07/25 03:26:10;;;;;;;5.80;3.20;;;;;;;;;;5033579;28;20025;-78
2023/07/25 03:28:36;;;;;;;5.35;2.75;;;;;;;;;;5035818;28;20064;-77
2023/07/25 03:31:01;;;;;;;8.45;3.00;;;;;;;;;;5035818;28;20021;-78
2023/07/25 03:33:27;;;;;;;4.95;3.10;;;;;;;;;;5034209;28;20037;-78
2023/07/25 03:35:54;;;;;;;4.13;2.78;;;;;;;;;;5034851;28;20028;-78
2023/07/25 03:38:19;;;;;;;5.60;3.08;;;;;;;;;;5034389;28;20030;-77
2023/07/25 03:40:45;;;;;;;3.97;2.90;;;;;;;;;;5034350;28;20032;-77
2023/07/25 03:43:10;;;;;;;5.20;2.60;;;;;;;;;;5035471;28;20389;-77
2023/07/25 03:45:36;;;;;;;4.25;2.97;;;;;;;;;;5034243;28;20064;-77
2023/07/25 03:48:01;;;;;;;5.65;2.85;;;;;;;;;;5034381;28;20018;-77
2023/07/25 03:50:27;;;;;;;4.93;2.83;;;;;;;;;;5035454;28;20469;-77
2023/07/25 03:52:52;;;;;;;4.43;2.83;;;;;;;;;;5035282;28;20040;-77
2023/07/25 03:55:17;;;;;;;4.07;2.72;;;;;;;;;;5034198;28;20080;-77
2023/07/25 03:57:43;;;;;;;4.40;2.83;;;;;;;;;;5035561;28;20021;-77
2023/07/25 04:00:09;;;;;;;5.65;2.80;;;;;;;;;;5033920;28;20040;-78
2023/07/25 04:02:34;;;;;;;3.63;2.53;;;;;;;;;;5033775;28;20096;-77
2023/07/25 04:04:59;;;;;;;4.28;3.03;;;;;;;;;;5034008;28;20026;-77
2023/07/25 04:07:25;;;;;;;4.60;2.85;;;;;;;;;;5033462;28;20435;-77
2023/07/25 04:09:50;;;;;;;4.97;2.92;;;;;;;;;;5035107;28;20025;-78
2023/07/25 04:12:15;;;;;;;6.82;3.03;;;;;;;;;;5034789;28;20025;-77
2023/07/25 04:14:41;;;;;;;5.13;3.10;;;;;;;;;;5041328;28;20476;-77
2023/07/25 04:17:06;;;;;;;4.88;3.03;;;;;;;;;;5033444;28;20048;-77
2023/07/25 04:19:32;;;;;;;5.45;2.95;;;;;;;;;;5032891;28;20033;-77
2023/07/25 04:21:57;;;;;;;4.40;2.75;;;;;;;;;;5033582;28;20022;-77
2023/07/25 04:24:22;;;;;;;5.82;2.80;;;;;;;;;;5034861;28;20032;-77
2023/07/25 04:26:48;;;;;;;4.55;3.10;;;;;;;;;;5033716;28;20499;-77
2023/07/25 04:29:13;;;;;;;5.65;2.97;;;;;;;;;;5032816;28;20029;-78
2023/07/25 04:31:39;;;;;;;6.30;2.90;;;;;;;;;;5033271;28;20189;-78
2023/07/25 04:34:04;;;;;;;4.85;2.83;;;;;;;;;;5033959;28;20029;-77
2023/07/25 04:36:29;;;;;;;6.45;3.00;;;;;;;;;;5030855;28;20056;-77
2023/07/25 04:38:56;;;;;;;4.22;3.00;;;;;;;;;;5034494;28;20029;-78
2023/07/25 04:41:22;;;;;;;5.57;3.30;;;;;;;;;;5034793;28;20245;-77
2023/07/25 04:43:47;;;;;;;4.72;3.00;;;;;;;;;;5033075;28;20040;-77
2023/07/25 04:46:13;;;;;;;4.25;2.78;;;;;;;;;;5034618;28;20466;-76
2023/07/25 04:48:38;;;;;;;5.80;3.13;;;;;;;;;;5034376;28;20706;-77
2023/07/25 04:51:04;;;;;;;6.30;3.42;;;;;;;;;;5032219;28;20018;-78
2023/07/25 04:53:29;;;;;;;6.47;3.38;;;;;;;;;;5034069;28;20061;-77
2023/07/25 04:55:55;;;;;;;5.95;3.47;;;;;;;;;;5032978;28;20025;-78
2023/07/25 04:58:20;;;;;;;5.57;3.20;;;;;;;;;;5032826;28;20037;-77
2023/07/25 05:00:46;;;;;;;6.28;3.30;;;;;;;;;;5034325;28;20032;-78
2023/07/25 05:03:12;;;;;;;6.90;3.22;;;;;;;;;;5033886;28;20030;-77
2023/07/25 05:05:37;;;;;;;5.18;3.22;;;;;;;;;;5032657;28;20116;-78
2023/07/25 05:08:03;;;;;;;6.13;3.50;;;;;;;;;;5033478;28;20105;-77
2023/07/25 05:10:28;;;;;;;7.70;3.10;;;;;;;;;;5029888;28;20051;-78
2023/07/25 05:12:53;;;;;;;5.10;3.75;;;;;;;;;;5033772;28;20018;-77
2023/07/25 05:15:19;;;;;;;4.72;3.47;;;;;;;;;;5033889;28;20025;-77
2023/07/25 05:17:44;;;;;;;6.47;3.50;;;;;;;;;;5016136;28;20099;-77
2023/07/25 05:20:10;;;;;;;6.72;4.07;;;;;;;;;;5033672;28;20024;-77
2023/07/25 05:22:35;;;;;;;5.93;3.80;;;;;;;;;;5032454;28;20024;-78
2023/07/25 05:25:00;;;;;;;6.35;3.95;;;;;;;;;;5032008;28;20497;-77
2023/07/25 05:27:26;;;;;;;6.78;3.83;;;;;;;;;;5029578;28;20023;-77
2023/07/25 05:29:51;;;;;;;5.30;3.65;;;;;;;;;;5033544;28;20477;-78
2023/07/25 05:32:16;;;;;;;8.40;3.65;;;;;;;;;;5032353;28;20025;-77
2023/07/25 05:34:42;;;;;;;5.15;3.70;;;;;;;;;;5033531;28;20037;-77
2023/07/25 05:37:07;;;;;;;6.38;3.50;;;;;;;;;;5033623;28;20388;-76
2023/07/25 05:39:33;;;;;;;6.40;3.78;;;;;;;;;;5031946;28;20034;-77
2023/07/25 05:41:58;;;;;;;6.78;3.97;;;;;;;;;;5031494;28;20112;-78
2023/07/25 05:44:23;;;;;;;7.78;3.50;;;;;;;;;;5030958;28;20060;-77
2023/07/25 05:46:49;;;;;;;5.45;3.35;;;;;;;;;;5033346;28;20057;-77
2023/07/25 05:49:15;;;;;;;5.07;2.90;;;;;;;;;;5032039;28;20107;-77
2023/07/25 05:51:40;;;;;;;5.32;3.10;;;;;;;;;;5033185;28;20615;-78
2023/07/25 05:54:05;;;;;;;6.47;3.10;;;;;;;;;;5033405;28;20048;-77
2023/07/25 05:56:31;;;;;;;5.85;2.95;;;;;;;;;;5033229;28;20048;-77
2023/07/25 05:58:56;;;;;;;5.68;3.10;;;;;;;;;;5032983;28;20053;-78
2023/07/25 06:01:22;;;;;;;7.57;2.65;;;;;;;;;;5026730;28;20484;-77
2023/07/25 06:03:47;;;;;;;8.85;2.83;;;;;;;;;;5033032;28;20025;-76
2023/07/25 06:06:12;;;;;;;7.10;1.98;;;;;;;;;;5030433;28;20025;-77
2023/07/25 06:08:38;;;;;;;5.50;2.20;;;;;;;;;;5032832;28;20021;-77
2023/07/25 06:11:03;;;;;;;8.70;2.40;;;;;;;;;;5032804;28;20025;-76
2023/07/25 06:13:28;;;;;;;6.45;2.50;;;;;;;;;;5032769;28;20036;-77
2023/07/25 06:15:54;;;;;;;5.57;2.30;;;;;;;;;;5015397;28;20500;-77
2023/07/25 06:18:19;;;;;;;4.10;2.15;;;;;;;;;;5031999;28;20064;-77
2023/07/25 06:20:47;;;;;;;7.07;2.35;;;;;;;;;;5022534;28;20097;-77
2023/07/25 06:23:12;;;;;;;4.22;2.67;;;;;;;;;;5032756;28;20385;-77
2023/07/25 06:25:37;;;;;;;7.03;2.28;;;;;;;;;;5031388;28;20028;-77
2023/07/25 06:28:04;;;;;;;4.78;2.20;;;;;;;;;;5032774;28;20483;-77
2023/07/25 06:30:30;;;;;;;5.03;2.40;;;;;;;;;;5031272;28;20064;-77
2023/07/25 06:32:55;;;;;;;4.63;2.17;;;;;;;;;;5032221;28;20053;-78
2023/07/25 06:35:22;;;;;;;9.80;2.55;;;;;;;;;;5031800;28;20032;-77
2023/07/25 06:37:48;;;;;;;5.32;2.28;;;;;;;;;;5031389;28;20035;-77
2023/07/25 06:40:14;;;;;;;5.40;2.47;;;;;;;;;;5032393;28;20029;-78
2023/07/25 06:42:39;;;;;;;4.63;2.20;;;;;;;;;;5031626;28;20499;-76
2023/07/25 06:45:05;;;;;;;5.35;2.22;;;;;;;;;;5031029;28;20397;-76
2023/07/25 06:47:31;;;;;;;5.20;2.03;;;;;;;;;;5032403;28;20488;-77
2023/07/25 06:49:56;;;;;;;8.38;2.30;;;;;;;;;;5030945;28;20025;-77
2023/07/25 06:52:21;;;;;;;7.65;2.40;;;;;;;;;;5030690;28;20473;-77
2023/07/25 06:54:48;;;;;;;5.85;2.00;;;;;;;;;;5032418;28;21669;-77
2023/07/25 06:57:13;;;;;;;6.57;1.85;;;;;;;;;;5032221;28;20032;-77
2023/07/25 06:59:39;;;;;;;5.30;1.77;;;;;;;;;;5032365;28;20523;-76
2023/07/25 07:02:04;;;;;;;5.38;1.50;;;;;;;;;;5032361;28;20029;-76
2023/07/25 07:04:29;;;;;;;3.88;1.52;;;;;;;;;;5032042;28;20029;-76
2023/07/25 07:06:55;;;;;;;5.38;2.13;;;;;;;;;;5030391;28;20108;-78
2023/07/25 07:09:20;;;;;;;6.65;1.58;;;;;;;;;;5035129;28;20022;-76
2023/07/25 07:11:46;;;;;;;4.93;1.73;;;;;;;;;;5032015;28;20104;-76
2023/07/25 07:14:11;;;;;;;4.15;1.60;;;;;;;;;;5030768;28;20025;-77
2023/07/25 07:16:37;;;;;;;4.18;1.42;;;;;;;;;;5026327;28;20092;-76
2023/07/25 07:19:03;;;;;;;6.32;1.83;;;;;;;;;;5030651;28;20400;-77
2023/07/25 07:21:29;;;;;;;5.72;1.17;;;;;;;;;;5030852;28;20036;-77
2023/07/25 07:23:54;;;;;;;3.60;1.40;;;;;;;;;;5031970;28;20480;-77
2023/07/25 07:26:20;;;;;;;6.45;1.65;;;;;;;;;;5030699;28;20033;-76
2023/07/25 07:28:45;;;;;;;5.50;1.42;;;;;;;;;;5031829;28;20032;-76
2023/07/25 07:31:12;;;;;;;4.75;1.27;;;;;;;;;;5030590;28;20029;-77
2023/07/25 07:33:38;;;;;;;4.38;1.10;;;;;;;;;;5031930;28;20384;-77
2023/07/25 07:36:04;;;;;;;3.20;1.00;;;;;;;;;;5030576;28;20056;-77
2023/07/25 07:38:29;;;;;;;5.18;1.13;;;;;;;;;;5030816;28;20053;-77
2023/07/25 07:40:54;;;;;;;6.55;1.15;;;;;;;;;;5030511;28;20373;-77
2023/07/25 07:43:20;;;;;;;4.97;1.10;;;;;;;;;;5031051;28;20168;-76
2023/07/25 07:45:45;;;;;;;5.03;1.20;;;;;;;;;;5031696;28;20477;-76
2023/07/25 07:48:11;;;;;;;4.93;1.13;;;;;;;;;;5031994;28;20025;-78
2023/07/25 07:50:36;;;;;;;3.90;1.08;;;;;;;;;;5030357;28;20025;-76
2023/07/25 07:53:03;;;;;;;3.63;1.17;;;;;;;;;;5031713;28;20026;-77
2023/07/25 07:55:28;;;;;;;4.57;0.98;;;;;;;;;;5031601;28;20030;-76
2023/07/25 07:57:55;;;;;;;4.18;1.00;;;;;;;;;;5031893;28;20108;-76
2023/07/25 08:00:20;;;;;;;3.75;1.10;;;;;;;;;;5031070;28;20112;-76
2023/07/25 08:02:45;;;;;;;3.63;0.98;;;;;;;;;;5030329;28;20426;-77
2023/07/25 08:05:12;;;;;;;5.50;1.27;;;;;;;;;;5031836;28;20029;-77
2023/07/25 08:07:38;;;;;;;6.25;0.93;;;;;;;;;;5035032;28;20416;-76
2023/07/25 08:10:04;;;;;;;3.97;1.60;;;;;;;;;;5034978;28;20030;-77
2023/07/25 08:12:29;;;;;;;4.25;1.30;;;;;;;;;;5033612;28;20095;-77
2023/07/25 08:14:55;;;;;;;2.63;0.90;;;;;;;;;;5033716;28;20033;-77
2023/07/25 08:17:20;;;;;;;2.83;1.20;;;;;;;;;;5024394;28;20401;-76
2023/07/25 08:19:46;;;;;;;4.50;0.98;;;;;;;;;;5033662;28;20017;-77
2023/07/25 08:22:11;;;;;;;3.60;1.08;;;;;;;;;;5033950;28;20436;-76
2023/07/25 08:24:37;;;;;;;4.65;1.27;;;;;;;;;;5033360;28;20025;-77
2023/07/25 08:27:03;;;;;;;3.33;1.00;;;;;;;;;;5033732;28;20021;-76
2023/07/25 08:29:29;;;;;;;2.90;0.90;;;;;;;;;;5033291;28;20033;-77
2023/07/25 08:31:54;;;;;;;5.57;1.15;;;;;;;;;;5033716;28;20021;-77
2023/07/25 08:34:20;;;;;;;4.28;0.90;;;;;;;;;;5033336;28;20083;-79
2023/07/25 08:36:46;;;;;;;3.88;0.90;;;;;;;;;;5033505;28;20059;-77
2023/07/25 08:39:11;;;;;;;4.22;1.10;;;;;;;;;;5033338;28;20381;-77
2023/07/25 08:41:45;;;;;;;4.75;1.10;;;;;;;;;;5033260;28;20096;-77
2023/07/25 08:44:11;;;;;;;5.03;0.90;;;;;;;;;;5034641;28;20100;-76
2023/07/25 08:46:44;;;;;;;2.53;0.80;;;;;;;;;;5033172;28;20461;-76
2023/07/25 08:49:14;;;;;;;6.07;1.10;;;;;;;;;;5033312;28;20045;-76
2023/07/25 08:51:41;;;;;;;4.93;1.00;;;;;;;;;;5031960;28;20029;-78
2023/07/25 08:54:24;;;;;;;4.20;0.77;;;;;;;;;;5034339;28;20025;-77
2023/07/25 08:56:49;;;;;;;1.95;0.90;;;;;;;;;;5032887;28;20049;-76
2023/07/25 08:59:17;;;;;;;4.85;0.90;;;;;;;;;;5034430;28;20025;-76
2023/07/25 09:01:42;;;;;;;2.85;0.90;;;;;;;;;;5032821;28;20116;-76
2023/07/25 09:04:10;;;;;;;3.05;0.80;;;;;;;;;;5034047;28;20108;-78
2023/07/25 09:06:36;;;;;;;1.50;0.70;;;;;;;;;;5033504;28;20075;-76
2023/07/25 09:09:02;;;;;;;3.22;0.90;;;;;;;;;;5032905;28;20021;-76
2023/07/25 09:11:28;;;;;;;6.60;1.20;;;;;;;;;;5032668;28;20018;-76
2023/07/25 09:13:53;;;;;;;7.30;1.15;;;;;;;;;;5034151;28;20029;-76
2023/07/25 09:16:19;;;;;;;4.28;0.90;;;;;;;;;;5034154;28;20025;-76
2023/07/25 09:18:44;;;;;;;4.00;0.90;;;;;;;;;;5032640;28;20032;-76
2023/07/25 09:21:12;;;;;;;2.65;0.88;;;;;;;;;;5033737;28;20108;-76
2023/07/25 09:23:37;;;;;;;3.10;1.00;;;;;;;;;;5032437;28;20112;-77
2023/07/25 09:26:10;;;;;;;3.03;0.82;;;;;;;;;;5032850;28;20060;-76
2023/07/25 09:28:36;;;;;;;4.60;0.95;;;;;;;;;;5033533;28;20500;-76
2023/07/25 09:31:04;;;;;;;4.10;1.02;;;;;;;;;;5033423;28;20065;-76
2023/07/25 09:33:30;;;;;;;2.42;0.98;;;;;;;;;;5012691;28;20370;-76
2023/07/25 09:35:57;;;;;;;2.80;0.80;;;;;;;;;;5032891;28;20029;-76
2023/07/25 09:38:22;;;;;;;3.92;1.25;;;;;;;;;;5032891;28;20025;-76
2023/07/25 09:40:48;;;;;;;3.80;0.90;;;;;;;;;;5014868;28;20124;-76
2023/07/25 09:43:24;;;;;;;4.15;1.02;;;;;;;;;;5032224;28;20159;-77
2023/07/25 09:45:51;;;;;;;2.22;0.80;;;;;;;;;;5033380;28;20034;-77
2023/07/25 09:48:18;;;;;;;2.33;0.77;;;;;;;;;;5032283;28;20029;-76
2023/07/25 09:50:46;;;;;;;1.60;0.73;;;;;;;;;;5032036;28;20604;-76
2023/07/25 09:53:13;;;;;;;2.25;0.90;;;;;;;;;;5033334;28;20024;-76
2023/07/25 09:55:39;;;;;;;3.00;1.00;;;;;;;;;;5032990;28;20022;-77
2023/07/25 09:58:05;;;;;;;2.80;0.95;;;;;;;;;;5027161;28;20393;-76
2023/07/25 10:00:31;;;;;;;2.92;0.80;;;;;;;;;;5031878;28;20025;-76
2023/07/25 10:03:00;;;;;;;2.42;0.90;;;;;;;;;;5033024;28;20448;-76
2023/07/25 10:05:27;;;;;;;3.53;0.70;;;;;;;;;;5032796;28;20100;-76
2023/07/25 10:07:53;;;;;;;2.13;0.77;;;;;;;;;;5031596;28;20083;-76
2023/07/25 10:10:19;;;;;;;2.17;0.90;;;;;;;;;;5015536;28;20017;-76
2023/07/25 10:12:45;;;;;;;3.78;0.80;;;;;;;;;;5028083;28;20053;-76
2023/07/25 10:15:12;;;;;;;3.00;0.82;;;;;;;;;;5026353;28;20057;-76
2023/07/25 10:17:38;;;;;;;4.85;0.82;;;;;;;;;;5031452;28;20528;-77
2023/07/25 10:20:07;;;;;;;2.58;0.90;;;;;;;;;;5031436;28;20061;-75
2023/07/25 10:22:38;;;;;;;1.70;0.77;;;;;;;;;;5031397;28;20021;-76
2023/07/25 10:25:11;;;;;;;4.57;0.77;;;;;;;;;;5032813;28;20392;-76
2023/07/25 10:27:36;;;;;;;1.38;0.60;;;;;;;;;;5030893;28;20021;-76
2023/07/25 10:30:02;;;;;;;2.33;0.85;;;;;;;;;;5032590;28;20473;-76
2023/07/25 10:32:45;;;;;;;5.05;0.90;;;;;;;;;;5028515;28;20485;-76
2023/07/25 10:35:10;;;;;;;2.47;0.80;;;;;;;;;;5028849;28;20028;-76
2023/07/25 10:37:43;;;;;;;2.38;0.80;;;;;;;;;;5032491;28;20120;-76
2023/07/25 10:40:17;;;;;;;2.03;0.70;;;;;;;;;;5032502;28;20019;-75
2023/07/25 10:42:56;;;;;;;2.70;0.80;;;;;;;;;;5031257;28;20495;-76
2023/07/25 10:45:27;;;;;;;4.00;0.80;;;;;;;;;;5032264;28;20142;-76
2023/07/25 10:47:58;;;;;;;2.72;0.90;;;;;;;;;;5032427;28;20496;-76
2023/07/25 10:50:46;;;;;;;3.78;0.77;;;;;;;;;;5032492;28;20063;-76
2023/07/25 10:53:16;;;;;;;1.25;0.73;;;;;;;;;;5021546;28;20057;-76
2023/07/25 10:56:03;;;;;;;2.20;0.73;;;;;;;;;;5031011;28;20477;-76
2023/07/25 10:58:33;;;;;;;2.22;0.68;;;;;;;;;;5031131;28;20025;-76
2023/07/25 11:01:00;;;;;;;2.35;0.80;;;;;;;;;;5031470;28;20061;-75
2023/07/25 11:03:31;;;;;;;0.95;0.55;;;;;;;;;;5030465;28;20013;-75
2023/07/25 11:06:05;;;;;;;3.38;0.90;;;;;;;;;;5025079;28;20025;-77
2023/07/25 11:08:32;;;;;;;2.70;0.80;;;;;;;;;;5026048;28;20401;-76
2023/07/25 11:11:16;;;;;;;3.05;0.70;;;;;;;;;;5030731;28;20036;-76
2023/07/25 11:13:42;;;;;;;5.63;0.75;;;;;;;;;;5030834;28;20536;-75
2023/07/25 11:16:10;;;;;;;2.55;0.65;;;;;;;;;;5030869;28;20480;-76
2023/07/25 11:18:40;;;;;;;1.77;0.68;;;;;;;;;;5030291;28;20443;-77
2023/07/25 11:21:09;;;;;;;1.38;0.70;;;;;;;;;;5060739;28;20105;-76
2023/07/25 11:23:35;;;;;;;2.13;0.80;;;;;;;;;;5028562;28;20393;-75
2023/07/25 11:26:02;;;;;;;4.25;1.00;;;;;;;;;;5030808;28;20021;-76
2023/07/25 11:28:28;;;;;;;2.42;0.63;;;;;;;;;;5032039;28;20362;-76
2023/07/25 11:30:54;;;;;;;1.65;0.68;;;;;;;;;;5030794;28;20025;-76
2023/07/25 11:33:20;;;;;;;7.60;1.10;;;;;;;;;;5030484;28;20043;-75
2023/07/25 11:35:51;;;;;;;0.93;0.50;;;;;;;;;;5027957;28;20027;-75
2023/07/25 11:38:16;;;;;;;1.30;0.60;;;;;;;;;;5031936;28;20022;-76
2023/07/25 11:40:42;;;;;;;2.03;0.50;;;;;;;;;;5032740;28;20021;-76
2023/07/25 11:43:12;;;;;;;4.50;0.70;;;;;;;;;;5034566;28;20067;-75
2023/07/25 11:45:38;;;;;;;0.73;0.40;;;;;;;;;;5034485;28;20118;-76
2023/07/25 11:48:07;;;;;;;2.38;0.50;;;;;;;;;;5034995;28;20020;-76
2023/07/25 11:50:34;;;;;;;2.95;0.70;;;;;;;;;;5034271;28;20429;-75
2023/07/25 11:53:01;;;;;;;2.28;0.68;;;;;;;;;;5035483;28;20122;-76
2023/07/25 11:55:28;;;;;;;2.63;0.80;;;;;;;;;;5034053;28;20481;-75
2023/07/25 11:57:53;;;;;;;1.58;0.55;;;;;;;;;;5034763;28;20052;-76
2023/07/25 12:00:21;;;;;;;1.58;0.60;;;;;;;;;;5035292;28;20021;-76
2023/07/25 12:02:46;;;;;;;4.55;0.80;;;;;;;;;;5035072;28;20436;-76
2023/07/25 12:05:29;;;;;;;1.42;0.55;;;;;;;;;;5033943;28;20025;-76
2023/07/25 12:08:02;;;;;;;3.13;0.63;;;;;;;;;;5033802;28;20024;-76
2023/07/25 12:10:34;;;;;;;2.13;0.50;;;;;;;;;;5035270;28;20052;-76
2023/07/25 12:13:08;;;;;;;1.55;0.60;;;;;;;;;;5034754;28;20049;-76
2023/07/25 12:15:43;;;;;;;1.42;0.50;;;;;;;;;;5033792;28;20032;-76
2023/07/25 12:18:28;;;;;;;2.63;0.70;;;;;;;;;;5034947;28;20033;-75
2023/07/25 12:20:59;;;;;;;1.65;0.55;;;;;;;;;;5031443;28;20056;-76
2023/07/25 12:23:28;;;;;;;1.80;0.50;;;;;;;;;;5034923;28;20014;-76
2023/07/25 12:26:00;;;;;;;2.55;0.60;;;;;;;;;;5033733;28;20476;-76
2023/07/25 12:28:38;;;;;;;1.80;0.60;;;;;;;;;;5034643;28;20021;-76
2023/07/25 12:31:04;;;;;;;2.42;0.50;;;;;;;;;;5030971;28;20021;-76
2023/07/25 12:33:29;;;;;;;2.15;0.52;;;;;;;;;;5034812;28;20374;-76
2023/07/25 12:35:57;;;;;;;2.35;0.65;;;;;;;;;;5033351;28;20420;-76
2023/07/25 12:38:22;;;;;;;1.92;0.60;;;;;;;;;;5033412;28;20035;-76
2023/07/25 12:40:48;;;;;;;2.25;1.00;;;;;;;;;;5034796;28;20021;-76
2023/07/25 12:43:13;;;;;;;2.00;0.70;;;;;;;;;;5033273;28;20424;-76
2023/07/25 12:45:38;;;;;;;6.32;1.25;;;;;;;;;;5034681;28;20087;-77
2023/07/25 12:48:04;;;;;;;2.45;0.70;;;;;;;;;;5032069;28;20029;-76
2023/07/25 12:50:30;;;;;;;1.48;0.60;;;;;;;;;;5032906;28;20239;-76
2023/07/25 12:52:56;;;;;;;3.25;0.73;;;;;;;;;;5033488;28;20104;-76
2023/07/25 12:55:21;;;;;;;1.38;0.75;;;;;;;;;;5032395;28;20030;-76
2023/07/25 12:57:47;;;;;;;2.53;0.90;;;;;;;;;;5034177;28;20029;-76
2023/07/25 13:00:12;;;;;;;3.05;0.70;;;;;;;;;;5034455;28;20075;-76
2023/07/25 13:02:38;;;;;;;1.15;0.70;;;;;;;;;;5030398;28;20021;-76
2023/07/25 13:05:04;;;;;;;2.75;0.80;;;;;;;;;;5032831;28;20026;-77
2023/07/25 13:07:29;;;;;;;2.35;0.70;;;;;;;;;;5032796;28;20040;-76
2023/07/25 13:09:56;;;;;;;2.55;0.70;;;;;;;;;;5033266;28;20017;-76
2023/07/25 13:12:22;;;;;;;2.88;1.20;;;;;;;;;;5031866;28;20052;-76
2023/07/25 13:14:48;;;;;;;1.90;0.68;;;;;;;;;;5033192;28;20037;-76
2023/07/25 13:17:14;;;;;;;2.15;0.80;;;;;;;;;;5024825;28;20028;-78
2023/07/25 13:19:39;;;;;;;2.35;0.63;;;;;;;;;;5032691;28;20025;-76
2023/07/25 13:22:05;;;;;;;2.13;0.73;;;;;;;;;;5029113;28;20086;-76
2023/07/25 13:24:30;;;;;;;1.83;0.70;;;;;;;;;;5033113;28;20064;-77
2023/07/25 13:26:56;;;;;;;1.30;0.60;;;;;;;;;;5028688;28;20461;-78
2023/07/25 13:29:21;;;;;;;1.83;0.80;;;;;;;;;;5032694;28;20532;-77
2023/07/25 13:31:47;;;;;;;2.05;0.70;;;;;;;;;;5032563;28;20029;-77
2023/07/25 13:34:12;;;;;;;2.80;0.80;;;;;;;;;;5030546;28;20014;-77
2023/07/25 13:36:38;;;;;;;2.15;0.80;;;;;;;;;;5032344;28;20021;-77
2023/07/25 13:39:06;;;;;;;1.67;0.60;;;;;;;;;;5026997;28;20425;-77
2023/07/25 13:41:31;;;;;;;1.17;0.75;;;;;;;;;;5030000;28;20116;-77
2023/07/25 13:43:57;;;;;;;2.17;0.70;;;;;;;;;;5033331;28;20096;-77
2023/07/25 13:46:22;;;;;;;2.05;0.88;;;;;;;;;;5032135;28;20021;-78
2023/07/25 13:48:48;;;;;;;2.13;1.15;;;;;;;;;;5032163;28;20075;-77
2023/07/25 13:51:14;;;;;;;3.75;0.90;;;;;;;;;;5032155;28;20052;-77
2023/07/25 13:53:39;;;;;;;2.40;0.82;;;;;;;;;;5031964;28;20466;-77
2023/07/25 13:56:05;;;;;;;2.60;0.90;;;;;;;;;;5031996;28;20028;-77
2023/07/25 13:58:30;;;;;;;1.40;0.77;;;;;;;;;;5031797;28;20401;-77
2023/07/25 14:00:56;;;;;;;2.35;0.90;;;;;;;;;;5028682;28;20473;-78
2023/07/25 14:03:21;;;;;;;4.15;0.90;;;;;;;;;;5030882;28;20120;-76
2023/07/25 14:05:47;;;;;;;1.60;0.80;;;;;;;;;;5014983;28;20029;-77
2023/07/25 14:08:12;;;;;;;1.17;0.80;;;;;;;;;;5031971;28;20022;-77
2023/07/25 14:10:42;;;;;;;3.28;0.90;;;;;;;;;;5033323;28;20532;-77
2023/07/25 14:13:08;;;;;;;3.55;0.90;;;;;;;;;;5031630;28;20536;-77
2023/07/25 14:15:34;;;;;;;2.15;0.73;;;;;;;;;;5032838;28;20025;-77
2023/07/25 14:18:00;;;;;;;2.95;1.17;;;;;;;;;;5031714;28;20464;-78
2023/07/25 14:20:26;;;;;;;4.05;0.70;;;;;;;;;;5032628;28;20040;-77
2023/07/25 14:22:51;;;;;;;1.55;0.70;;;;;;;;;;5031701;28;20033;-78
2023/07/25 14:25:17;;;;;;;2.28;0.80;;;;;;;;;;5032684;28;20017;-77
2023/07/25 14:27:42;;;;;;;1.58;0.88;;;;;;;;;;5032827;28;20079;-77
2023/07/25 14:30:08;;;;;;;1.50;0.65;;;;;;;;;;5031154;28;20025;-77
2023/07/25 14:32:33;;;;;;;2.15;0.80;;;;;;;;;;5031342;28;20060;-78
2023/07/25 14:34:59;;;;;;;1.05;0.70;;;;;;;;;;5031393;28;20086;-77
2023/07/25 14:37:24;;;;;;;1.08;0.65;;;;;;;;;;5031383;28;20112;-78
2023/07/25 14:39:50;;;;;;;3.53;0.57;;;;;;;;;;5031165;28;20028;-77